sensor_id;sensor_type;location;lat;lon;timestamp;pressure;altitude;pressure_sealevel;temperature;humidity
4981;BME280;2507;50.392;7.482;2022-09-09T00:04:00;100179.00;;;18.29;72.77
4981;BME280;2507;50.392;7.482;2022-09-09T00:06:31;100182.16;;;18.08;74.23
4981;BME280;2507;50.392;7.482;2022-09-09T00:11:42;100172.72;;;17.98;74.98
4981;BME280;2507;50.392;7.482;2022-09-09T00:14:15;100168.38;;;18.21;74.44
4981;BME280;2507;50.392;7.482;2022-09-09T00:16:47;100170.50;;;18.25;73.94
4981;BME280;2507;50.392;7.482;2022-09-09T00:19:50;100155.72;;;18.39;73.00
4981;BME280;2507;50.392;7.482;2022-09-09T00:22:18;100157.06;;;18.43;73.16
4981;BME280;2507;50.392;7.482;2022-09-09T00:27:23;100157.03;;;18.51;72.66
4981;BME280;2507;50.392;7.482;2022-09-09T00:30:00;100156.19;;;18.59;71.99
4981;BME280;2507;50.392;7.482;2022-09-09T00:32:30;100158.72;;;18.36;72.56
4981;BME280;2507;50.392;7.482;2022-09-09T00:35:04;100163.25;;;17.95;74.57
4981;BME280;2507;50.392;7.482;2022-09-09T00:37:41;100163.91;;;17.81;75.18
4981;BME280;2507;50.392;7.482;2022-09-09T00:40:34;100158.41;;;17.75;75.92
4981;BME280;2507;50.392;7.482;2022-09-09T00:56:31;100161.75;;;18.09;74.79
4981;BME280;2507;50.392;7.482;2022-09-09T00:59:10;100166.72;;;17.96;75.30
4981;BME280;2507;50.392;7.482;2022-09-09T01:01:37;100167.88;;;17.93;75.39
4981;BME280;2507;50.392;7.482;2022-09-09T01:04:09;100158.91;;;18.02;75.10
4981;BME280;2507;50.392;7.482;2022-09-09T01:06:41;100165.41;;;18.00;74.79
4981;BME280;2507;50.392;7.482;2022-09-09T01:09:32;100163.72;;;17.99;74.88
4981;BME280;2507;50.392;7.482;2022-09-09T01:12:09;100164.72;;;18.06;75.49
4981;BME280;2507;50.392;7.482;2022-09-09T01:17:28;100156.06;;;18.28;74.76
4981;BME280;2507;50.392;7.482;2022-09-09T01:20:03;100155.88;;;18.38;74.06
4981;BME280;2507;50.392;7.482;2022-09-09T01:28:15;100157.06;;;18.43;73.86
4981;BME280;2507;50.392;7.482;2022-09-09T01:30:42;100164.03;;;18.52;73.47
4981;BME280;2507;50.392;7.482;2022-09-09T01:33:13;100161.72;;;18.41;73.84
4981;BME280;2507;50.392;7.482;2022-09-09T01:35:44;100163.38;;;18.34;74.34
4981;BME280;2507;50.392;7.482;2022-09-09T01:38:12;100163.69;;;18.39;74.29
4981;BME280;2507;50.392;7.482;2022-09-09T01:40:38;100194.59;;;18.48;73.51
4981;BME280;2507;50.392;7.482;2022-09-09T01:43:04;100165.34;;;18.48;73.26
4981;BME280;2507;50.392;7.482;2022-09-09T01:45:30;100166.03;;;18.34;73.51
4981;BME280;2507;50.392;7.482;2022-09-09T01:47:55;100163.06;;;18.21;74.15
4981;BME280;2507;50.392;7.482;2022-09-09T01:50:22;100168.72;;;18.18;74.28
4981;BME280;2507;50.392;7.482;2022-09-09T01:52:50;100170.69;;;18.24;74.06
4981;BME280;2507;50.392;7.482;2022-09-09T01:55:18;100172.00;;;18.20;74.28
4981;BME280;2507;50.392;7.482;2022-09-09T02:00:29;100166.34;;;18.31;73.87
4981;BME280;2507;50.392;7.482;2022-09-09T02:03:09;100164.34;;;18.33;73.86
4981;BME280;2507;50.392;7.482;2022-09-09T02:05:40;100157.69;;;18.53;73.10
4981;BME280;2507;50.392;7.482;2022-09-09T02:10:38;100174.31;;;18.55;72.83
4981;BME280;2507;50.392;7.482;2022-09-09T02:13:19;100169.34;;;18.52;72.93
4981;BME280;2507;50.392;7.482;2022-09-09T02:15:52;100174.66;;;18.52;73.05
4981;BME280;2507;50.392;7.482;2022-09-09T02:18:24;100174.97;;;18.57;73.30
4981;BME280;2507;50.392;7.482;2022-09-09T02:20:52;100177.28;;;18.60;72.96
4981;BME280;2507;50.392;7.482;2022-09-09T02:23:18;100181.25;;;18.72;72.58
4981;BME280;2507;50.392;7.482;2022-09-09T02:25:45;100168.97;;;18.63;72.97
4981;BME280;2507;50.392;7.482;2022-09-09T02:28:13;100167.78;;;18.66;72.68
4981;BME280;2507;50.392;7.482;2022-09-09T02:30:40;100175.31;;;18.54;73.03
4981;BME280;2507;50.392;7.482;2022-09-09T02:33:08;100167.84;;;18.50;73.22
4981;BME280;2507;50.392;7.482;2022-09-09T02:35:36;100166.38;;;18.47;73.15
4981;BME280;2507;50.392;7.482;2022-09-09T02:38:07;100158.84;;;18.59;72.30
4981;BME280;2507;50.392;7.482;2022-09-09T02:40:34;100154.56;;;18.50;72.99
4981;BME280;2507;50.392;7.482;2022-09-09T02:42:59;100153.72;;;18.49;72.91
4981;BME280;2507;50.392;7.482;2022-09-09T02:45:28;100148.59;;;18.31;73.45
4981;BME280;2507;50.392;7.482;2022-09-09T02:51:18;100147.25;;;18.27;74.27
4981;BME280;2507;50.392;7.482;2022-09-09T02:54:14;100137.47;;;18.20;74.01
4981;BME280;2507;50.392;7.482;2022-09-09T02:56:47;100146.28;;;18.20;74.52
4981;BME280;2507;50.392;7.482;2022-09-09T02:59:16;100144.28;;;18.22;74.28
4981;BME280;2507;50.392;7.482;2022-09-09T03:01:41;100147.13;;;18.13;74.96
4981;BME280;2507;50.392;7.482;2022-09-09T03:04:07;100147.47;;;18.10;75.01
4981;BME280;2507;50.392;7.482;2022-09-09T03:06:32;100147.81;;;17.91;76.32
4981;BME280;2507;50.392;7.482;2022-09-09T03:08:57;100151.97;;;17.85;76.59
4981;BME280;2507;50.392;7.482;2022-09-09T03:11:26;100146.16;;;17.98;75.89
4981;BME280;2507;50.392;7.482;2022-09-09T03:13:51;100155.09;;;17.97;75.46
4981;BME280;2507;50.392;7.482;2022-09-09T03:16:16;100152.44;;;17.81;76.58
4981;BME280;2507;50.392;7.482;2022-09-09T03:18:42;100151.78;;;17.87;76.26
4981;BME280;2507;50.392;7.482;2022-09-09T03:21:10;100162.41;;;17.95;75.66
4981;BME280;2507;50.392;7.482;2022-09-09T03:23:36;100152.28;;;17.82;76.48
4981;BME280;2507;50.392;7.482;2022-09-09T03:26:01;100159.44;;;17.82;76.73
4981;BME280;2507;50.392;7.482;2022-09-09T03:28:26;100157.09;;;17.79;76.62
4981;BME280;2507;50.392;7.482;2022-09-09T03:31:05;100153.78;;;17.69;77.10
4981;BME280;2507;50.392;7.482;2022-09-09T03:33:31;100159.56;;;17.64;77.68
4981;BME280;2507;50.392;7.482;2022-09-09T03:35:57;100164.56;;;17.67;77.64
4981;BME280;2507;50.392;7.482;2022-09-09T03:38:24;100168.38;;;17.81;76.65
4981;BME280;2507;50.392;7.482;2022-09-09T03:40:55;100176.16;;;17.82;76.21
4981;BME280;2507;50.392;7.482;2022-09-09T03:43:25;100170.53;;;18.01;75.35
4981;BME280;2507;50.392;7.482;2022-09-09T03:45:51;100180.66;;;18.06;74.90
4981;BME280;2507;50.392;7.482;2022-09-09T03:48:17;100174.50;;;17.89;76.38
4981;BME280;2507;50.392;7.482;2022-09-09T03:53:11;100175.03;;;18.09;75.58
4981;BME280;2507;50.392;7.482;2022-09-09T03:55:36;100168.72;;;18.18;75.10
4981;BME280;2507;50.392;7.482;2022-09-09T03:58:02;100181.31;;;18.08;75.34
4981;BME280;2507;50.392;7.482;2022-09-09T04:00:27;100172.50;;;18.07;76.02
4981;BME280;2507;50.392;7.482;2022-09-09T04:02:54;100170.03;;;18.06;75.65
4981;BME280;2507;50.392;7.482;2022-09-09T04:05:19;100166.06;;;18.10;75.53
4981;BME280;2507;50.392;7.482;2022-09-09T04:07:44;100177.03;;;18.07;75.90
4981;BME280;2507;50.392;7.482;2022-09-09T04:10:10;100160.75;;;18.10;75.55
4981;BME280;2507;50.392;7.482;2022-09-09T04:12:35;100162.75;;;18.16;75.24
4981;BME280;2507;50.392;7.482;2022-09-09T04:15:01;100166.72;;;18.12;75.72
4981;BME280;2507;50.392;7.482;2022-09-09T04:17:27;100173.34;;;18.16;75.84
4981;BME280;2507;50.392;7.482;2022-09-09T04:19:52;100168.19;;;18.30;74.22
4981;BME280;2507;50.392;7.482;2022-09-09T04:22:18;100177.31;;;18.28;73.97
4981;BME280;2507;50.392;7.482;2022-09-09T04:24:43;100184.28;;;18.13;74.85
4981;BME280;2507;50.392;7.482;2022-09-09T04:27:08;100184.47;;;18.19;74.71
4981;BME280;2507;50.392;7.482;2022-09-09T04:29:34;100180.81;;;18.28;74.02
4981;BME280;2507;50.392;7.482;2022-09-09T04:31:59;100186.63;;;18.32;73.92
4981;BME280;2507;50.392;7.482;2022-09-09T04:34:24;100191.44;;;18.20;74.46
4981;BME280;2507;50.392;7.482;2022-09-09T04:36:50;100191.94;;;18.24;74.93
4981;BME280;2507;50.392;7.482;2022-09-09T04:39:17;100181.00;;;18.27;74.41
4981;BME280;2507;50.392;7.482;2022-09-09T04:41:42;100191.13;;;18.23;74.28
4981;BME280;2507;50.392;7.482;2022-09-09T04:44:07;100196.75;;;18.28;74.10
4981;BME280;2507;50.392;7.482;2022-09-09T04:46:32;100201.53;;;18.33;73.86
4981;BME280;2507;50.392;7.482;2022-09-09T04:48:59;100198.94;;;18.41;74.44
4981;BME280;2507;50.392;7.482;2022-09-09T04:51:24;100189.09;;;18.58;73.48
4981;BME280;2507;50.392;7.482;2022-09-09T04:53:50;100198.00;;;18.73;72.70
4981;BME280;2507;50.392;7.482;2022-09-09T04:56:17;100198.84;;;18.73;72.36
4981;BME280;2507;50.392;7.482;2022-09-09T04:58:42;100195.34;;;18.81;72.18
4981;BME280;2507;50.392;7.482;2022-09-09T05:01:09;100186.47;;;18.96;70.89
4981;BME280;2507;50.392;7.482;2022-09-09T05:03:35;100188.31;;;18.96;70.97
4981;BME280;2507;50.392;7.482;2022-09-09T05:06:08;100188.13;;;18.97;70.44
4981;BME280;2507;50.392;7.482;2022-09-09T05:08:35;100189.81;;;18.90;70.99
4981;BME280;2507;50.392;7.482;2022-09-09T05:11:01;100189.00;;;18.90;71.11
4981;BME280;2507;50.392;7.482;2022-09-09T05:13:27;100192.50;;;18.82;71.24
4981;BME280;2507;50.392;7.482;2022-09-09T05:15:53;100185.88;;;18.78;71.04
4981;BME280;2507;50.392;7.482;2022-09-09T05:18:19;100178.53;;;18.80;71.38
4981;BME280;2507;50.392;7.482;2022-09-09T05:20:44;100182.72;;;18.75;71.40
4981;BME280;2507;50.392;7.482;2022-09-09T05:23:09;100187.84;;;18.84;71.04
4981;BME280;2507;50.392;7.482;2022-09-09T05:25:38;100186.88;;;18.77;71.08
4981;BME280;2507;50.392;7.482;2022-09-09T05:28:03;100198.13;;;18.87;70.85
4981;BME280;2507;50.392;7.482;2022-09-09T05:30:28;100197.44;;;19.01;70.16
4981;BME280;2507;50.392;7.482;2022-09-09T05:32:56;100192.91;;;19.10;70.06
4981;BME280;2507;50.392;7.482;2022-09-09T05:35:22;100197.63;;;19.30;69.65
4981;BME280;2507;50.392;7.482;2022-09-09T05:37:48;100196.34;;;19.57;68.28
4981;BME280;2507;50.392;7.482;2022-09-09T05:40:13;100200.72;;;19.73;67.84
4981;BME280;2507;50.392;7.482;2022-09-09T05:42:39;100199.00;;;20.02;67.65
4981;BME280;2507;50.392;7.482;2022-09-09T05:45:05;100201.25;;;20.36;65.67
4981;BME280;2507;50.392;7.482;2022-09-09T05:47:32;100198.97;;;20.62;64.78
4981;BME280;2507;50.392;7.482;2022-09-09T05:49:57;100203.66;;;20.89;63.98
4981;BME280;2507;50.392;7.482;2022-09-09T05:52:23;100206.34;;;21.18;62.80
4981;BME280;2507;50.392;7.482;2022-09-09T05:54:49;100197.75;;;21.38;61.30
4981;BME280;2507;50.392;7.482;2022-09-09T05:57:14;100198.00;;;21.43;61.72
4981;BME280;2507;50.392;7.482;2022-09-09T05:59:40;100204.31;;;21.92;60.37
4981;BME280;2507;50.392;7.482;2022-09-09T06:02:05;100194.09;;;22.78;58.31
4981;BME280;2507;50.392;7.482;2022-09-09T06:04:30;100192.06;;;23.81;55.41
4981;BME280;2507;50.392;7.482;2022-09-09T06:06:56;100184.03;;;24.79;51.07
4981;BME280;2507;50.392;7.482;2022-09-09T06:09:21;100196.75;;;25.10;51.23
4981;BME280;2507;50.392;7.482;2022-09-09T06:11:47;100203.66;;;25.81;49.92
4981;BME280;2507;50.392;7.482;2022-09-09T06:14:12;100190.00;;;26.39;48.33
4981;BME280;2507;50.392;7.482;2022-09-09T06:16:37;100186.78;;;27.27;45.30
4981;BME280;2507;50.392;7.482;2022-09-09T06:19:03;100195.75;;;26.42;46.05
4981;BME280;2507;50.392;7.482;2022-09-09T06:21:32;100190.66;;;25.41;48.61
4981;BME280;2507;50.392;7.482;2022-09-09T06:23:58;100187.19;;;25.20;49.40
4981;BME280;2507;50.392;7.482;2022-09-09T06:26:26;100184.44;;;25.47;49.00
4981;BME280;2507;50.392;7.482;2022-09-09T06:28:54;100178.53;;;25.63;48.08
4981;BME280;2507;50.392;7.482;2022-09-09T06:31:21;100183.31;;;26.23;46.99
4981;BME280;2507;50.392;7.482;2022-09-09T06:33:48;100173.13;;;26.74;45.63
4981;BME280;2507;50.392;7.482;2022-09-09T06:36:19;100177.81;;;26.79;45.30
4981;BME280;2507;50.392;7.482;2022-09-09T06:38:45;100172.72;;;27.25;44.69
4981;BME280;2507;50.392;7.482;2022-09-09T06:41:12;100181.16;;;27.88;43.24
4981;BME280;2507;50.392;7.482;2022-09-09T06:43:38;100177.34;;;29.23;40.74
4981;BME280;2507;50.392;7.482;2022-09-09T06:48:44;100185.47;;;30.78;37.24
4981;BME280;2507;50.392;7.482;2022-09-09T06:51:18;100179.41;;;30.88;36.28
4981;BME280;2507;50.392;7.482;2022-09-09T06:53:45;100174.06;;;30.76;35.99
4981;BME280;2507;50.392;7.482;2022-09-09T06:58:40;100185.56;;;29.56;38.29
4981;BME280;2507;50.392;7.482;2022-09-09T07:01:10;100183.78;;;29.61;38.35
4981;BME280;2507;50.392;7.482;2022-09-09T07:03:37;100181.06;;;29.73;37.99
4981;BME280;2507;50.392;7.482;2022-09-09T07:06:04;100185.72;;;29.77;37.86
4981;BME280;2507;50.392;7.482;2022-09-09T07:08:29;100190.44;;;30.15;36.35
4981;BME280;2507;50.392;7.482;2022-09-09T07:11:05;100179.38;;;29.15;37.31
4981;BME280;2507;50.392;7.482;2022-09-09T07:13:31;100178.66;;;29.20;37.98
4981;BME280;2507;50.392;7.482;2022-09-09T07:16:04;100196.56;;;29.66;36.91
4981;BME280;2507;50.392;7.482;2022-09-09T07:18:29;100185.66;;;30.22;36.20
4981;BME280;2507;50.392;7.482;2022-09-09T07:20:55;100188.56;;;30.15;35.77
4981;BME280;2507;50.392;7.482;2022-09-09T07:23:22;100194.44;;;30.62;35.06
4981;BME280;2507;50.392;7.482;2022-09-09T07:25:47;100186.78;;;30.38;35.23
4981;BME280;2507;50.392;7.482;2022-09-09T07:28:13;100193.34;;;30.42;35.96
4981;BME280;2507;50.392;7.482;2022-09-09T07:30:39;100202.75;;;30.72;35.03
4981;BME280;2507;50.392;7.482;2022-09-09T07:33:05;100202.38;;;30.47;35.35
4981;BME280;2507;50.392;7.482;2022-09-09T07:35:30;100202.56;;;30.79;34.92
4981;BME280;2507;50.392;7.482;2022-09-09T07:37:56;100200.00;;;29.73;36.02
4981;BME280;2507;50.392;7.482;2022-09-09T07:40:21;100199.13;;;29.16;36.49
4981;BME280;2507;50.392;7.482;2022-09-09T07:42:47;100198.31;;;28.92;37.10
4981;BME280;2507;50.392;7.482;2022-09-09T07:45:12;100190.81;;;28.71;37.59
4981;BME280;2507;50.392;7.482;2022-09-09T07:47:38;100189.91;;;28.54;37.95
4981;BME280;2507;50.392;7.482;2022-09-09T07:50:03;100184.31;;;28.95;37.24
4981;BME280;2507;50.392;7.482;2022-09-09T07:52:28;100192.38;;;29.30;36.80
4981;BME280;2507;50.392;7.482;2022-09-09T07:54:54;100199.34;;;29.03;36.89
4981;BME280;2507;50.392;7.482;2022-09-09T07:57:19;100208.72;;;28.31;37.85
4981;BME280;2507;50.392;7.482;2022-09-09T07:59:44;100204.72;;;28.22;38.39
4981;BME280;2507;50.392;7.482;2022-09-09T08:02:10;100207.13;;;27.89;38.76
4981;BME280;2507;50.392;7.482;2022-09-09T08:04:36;100214.69;;;26.78;40.68
4981;BME280;2507;50.392;7.482;2022-09-09T08:07:01;100221.25;;;26.89;41.04
4981;BME280;2507;50.392;7.482;2022-09-09T08:09:28;100216.81;;;27.49;40.03
4981;BME280;2507;50.392;7.482;2022-09-09T08:11:54;100214.31;;;27.95;39.13
4981;BME280;2507;50.392;7.482;2022-09-09T08:14:22;100210.00;;;27.76;38.69
4981;BME280;2507;50.392;7.482;2022-09-09T08:16:49;100217.19;;;26.98;40.01
4981;BME280;2507;50.392;7.482;2022-09-09T08:19:14;100222.28;;;25.83;42.51
4981;BME280;2507;50.392;7.482;2022-09-09T08:21:41;100214.94;;;25.14;44.26
4981;BME280;2507;50.392;7.482;2022-09-09T08:24:09;100215.72;;;25.21;43.86
4981;BME280;2507;50.392;7.482;2022-09-09T08:26:40;100222.16;;;25.14;44.24
4981;BME280;2507;50.392;7.482;2022-09-09T08:29:07;100222.41;;;24.93;44.79
4981;BME280;2507;50.392;7.482;2022-09-09T08:31:35;100220.00;;;24.52;44.90
4981;BME280;2507;50.392;7.482;2022-09-09T08:34:02;100220.41;;;24.56;45.35
4981;BME280;2507;50.392;7.482;2022-09-09T08:36:30;100224.94;;;24.62;44.91
4981;BME280;2507;50.392;7.482;2022-09-09T08:38:58;100240.00;;;24.37;45.94
4981;BME280;2507;50.392;7.482;2022-09-09T08:41:36;100220.81;;;24.07;44.49
4981;BME280;2507;50.392;7.482;2022-09-09T08:49:53;100219.81;;;23.48;45.66
4981;BME280;2507;50.392;7.482;2022-09-09T08:52:26;100215.97;;;23.70;45.02
4981;BME280;2507;50.392;7.482;2022-09-09T08:54:56;100221.53;;;23.62;45.17
4981;BME280;2507;50.392;7.482;2022-09-09T08:57:28;100223.16;;;23.63;44.61
4981;BME280;2507;50.392;7.482;2022-09-09T08:59:54;100226.25;;;23.73;44.58
4981;BME280;2507;50.392;7.482;2022-09-09T09:02:26;100233.91;;;23.76;44.29
4981;BME280;2507;50.392;7.482;2022-09-09T09:05:14;100226.69;;;23.70;44.11
4981;BME280;2507;50.392;7.482;2022-09-09T09:10:47;100228.44;;;24.49;42.72
4981;BME280;2507;50.392;7.482;2022-09-09T09:13:15;100227.19;;;24.65;42.74
4981;BME280;2507;50.392;7.482;2022-09-09T09:15:44;100228.03;;;24.59;42.67
4981;BME280;2507;50.392;7.482;2022-09-09T09:18:12;100231.75;;;24.12;43.40
4981;BME280;2507;50.392;7.482;2022-09-09T09:21:15;100222.41;;;23.95;44.27
4981;BME280;2507;50.392;7.482;2022-09-09T09:23:55;100218.13;;;24.13;43.92
4981;BME280;2507;50.392;7.482;2022-09-09T09:26:24;100219.34;;;24.11;43.79
4981;BME280;2507;50.392;7.482;2022-09-09T09:28:54;100208.44;;;24.19;44.60
4981;BME280;2507;50.392;7.482;2022-09-09T09:31:21;100217.72;;;24.43;44.26
4981;BME280;2507;50.392;7.482;2022-09-09T09:33:53;100217.72;;;24.75;43.32
4981;BME280;2507;50.392;7.482;2022-09-09T09:36:20;100219.94;;;24.91;43.19
4981;BME280;2507;50.392;7.482;2022-09-09T09:38:55;100219.09;;;24.97;42.62
4981;BME280;2507;50.392;7.482;2022-09-09T09:41:36;100225.53;;;24.96;42.58
4981;BME280;2507;50.392;7.482;2022-09-09T09:44:04;100217.44;;;25.03;41.87
4981;BME280;2507;50.392;7.482;2022-09-09T09:46:31;100232.28;;;25.12;41.32
4981;BME280;2507;50.392;7.482;2022-09-09T09:48:58;100215.38;;;25.05;41.41
4981;BME280;2507;50.392;7.482;2022-09-09T09:51:24;100197.66;;;24.91;41.79
4981;BME280;2507;50.392;7.482;2022-09-09T09:53:50;100211.03;;;25.04;41.92
4981;BME280;2507;50.392;7.482;2022-09-09T09:56:27;100211.06;;;24.97;41.93
4981;BME280;2507;50.392;7.482;2022-09-09T09:58:55;100205.56;;;25.30;41.78
4981;BME280;2507;50.392;7.482;2022-09-09T10:04:00;100209.69;;;25.77;40.14
4981;BME280;2507;50.392;7.482;2022-09-09T10:06:35;100214.59;;;25.86;39.36
4981;BME280;2507;50.392;7.482;2022-09-09T10:09:03;100217.06;;;25.88;39.59
4981;BME280;2507;50.392;7.482;2022-09-09T10:11:49;100209.34;;;25.09;40.80
4981;BME280;2507;50.392;7.482;2022-09-09T10:14:26;100218.94;;;24.73;42.37
4981;BME280;2507;50.392;7.482;2022-09-09T10:19:31;100212.59;;;25.24;41.08
4981;BME280;2507;50.392;7.482;2022-09-09T10:29:57;100212.22;;;25.21;40.64
4981;BME280;2507;50.392;7.482;2022-09-09T10:38:11;100205.66;;;25.04;40.63
4981;BME280;2507;50.392;7.482;2022-09-09T10:48:56;100229.44;;;25.58;40.88
4981;BME280;2507;50.392;7.482;2022-09-09T10:57:28;100210.31;;;25.35;40.53
4981;BME280;2507;50.392;7.482;2022-09-09T10:59:59;100205.66;;;25.61;40.21
4981;BME280;2507;50.392;7.482;2022-09-09T11:02:29;100200.16;;;26.12;39.78
4981;BME280;2507;50.392;7.482;2022-09-09T11:07:47;100195.75;;;25.55;40.29
4981;BME280;2507;50.392;7.482;2022-09-09T11:10:38;100205.25;;;25.58;40.45
4981;BME280;2507;50.392;7.482;2022-09-09T11:13:19;100211.13;;;25.79;39.36
4981;BME280;2507;50.392;7.482;2022-09-09T11:15:54;100221.31;;;26.08;39.17
4981;BME280;2507;50.392;7.482;2022-09-09T11:18:23;100207.19;;;26.13;39.23
4981;BME280;2507;50.392;7.482;2022-09-09T11:20:52;100211.25;;;26.47;39.04
4981;BME280;2507;50.392;7.482;2022-09-09T11:23:25;100190.81;;;26.39;37.83
4981;BME280;2507;50.392;7.482;2022-09-09T11:25:57;100211.75;;;25.75;39.05
4981;BME280;2507;50.392;7.482;2022-09-09T11:31:03;100192.44;;;25.91;39.25
4981;BME280;2507;50.392;7.482;2022-09-09T11:33:58;100192.03;;;26.43;38.82
4981;BME280;2507;50.392;7.482;2022-09-09T11:42:06;100178.41;;;26.81;36.99
4981;BME280;2507;50.392;7.482;2022-09-09T11:44:32;100177.38;;;26.82;37.28
4981;BME280;2507;50.392;7.482;2022-09-09T11:46:57;100181.84;;;26.88;36.78
4981;BME280;2507;50.392;7.482;2022-09-09T11:49:40;100173.13;;;26.68;37.10
4981;BME280;2507;50.392;7.482;2022-09-09T11:52:35;100190.38;;;26.42;37.50
4981;BME280;2507;50.392;7.482;2022-09-09T11:55:12;100180.38;;;26.00;37.84
4981;BME280;2507;50.392;7.482;2022-09-09T11:57:57;100194.91;;;25.92;38.95
4981;BME280;2507;50.392;7.482;2022-09-09T12:00:33;100189.75;;;25.91;42.43
4981;BME280;2507;50.392;7.482;2022-09-09T12:02:59;100194.41;;;25.26;46.04
4981;BME280;2507;50.392;7.482;2022-09-09T12:05:39;100187.53;;;24.86;47.29
4981;BME280;2507;50.392;7.482;2022-09-09T12:08:06;100188.19;;;24.75;47.12
4981;BME280;2507;50.392;7.482;2022-09-09T12:10:40;100178.50;;;24.74;47.09
4981;BME280;2507;50.392;7.482;2022-09-09T12:13:20;100177.44;;;24.75;46.61
4981;BME280;2507;50.392;7.482;2022-09-09T12:15:55;100175.53;;;24.95;46.11
4981;BME280;2507;50.392;7.482;2022-09-09T12:18:31;100176.34;;;24.89;45.41
4981;BME280;2507;50.392;7.482;2022-09-09T12:21:06;100168.56;;;24.62;45.83
4981;BME280;2507;50.392;7.482;2022-09-09T12:23:42;100167.38;;;24.38;46.39
4981;BME280;2507;50.392;7.482;2022-09-09T12:29:06;100162.22;;;25.13;44.47
4981;BME280;2507;50.392;7.482;2022-09-09T12:31:44;100169.50;;;25.06;45.05
4981;BME280;2507;50.392;7.482;2022-09-09T12:34:27;100168.13;;;24.91;44.80
4981;BME280;2507;50.392;7.482;2022-09-09T12:37:02;100158.44;;;25.27;45.45
4981;BME280;2507;50.392;7.482;2022-09-09T12:39:45;100171.22;;;25.45;43.83
4981;BME280;2507;50.392;7.482;2022-09-09T12:42:19;100156.25;;;25.56;39.75
4981;BME280;2507;50.392;7.482;2022-09-09T12:45:02;100143.97;;;25.28;39.34
4981;BME280;2507;50.392;7.482;2022-09-09T12:47:56;100147.88;;;25.33;39.45
4981;BME280;2507;50.392;7.482;2022-09-09T12:50:26;100157.78;;;25.39;38.49
4981;BME280;2507;50.392;7.482;2022-09-09T12:52:58;100153.78;;;25.85;38.21
4981;BME280;2507;50.392;7.482;2022-09-09T12:55:28;100143.50;;;26.07;36.99
4981;BME280;2507;50.392;7.482;2022-09-09T12:57:55;100138.53;;;26.04;36.42
4981;BME280;2507;50.392;7.482;2022-09-09T13:00:24;100140.41;;;26.03;36.91
4981;BME280;2507;50.392;7.482;2022-09-09T13:02:55;100143.50;;;26.07;36.94
4981;BME280;2507;50.392;7.482;2022-09-09T13:05:26;100129.72;;;26.21;36.21
4981;BME280;2507;50.392;7.482;2022-09-09T13:08:00;100126.16;;;25.72;37.22
4981;BME280;2507;50.392;7.482;2022-09-09T13:10:29;100130.28;;;25.99;36.88
4981;BME280;2507;50.392;7.482;2022-09-09T13:12:55;100119.19;;;26.38;35.82
4981;BME280;2507;50.392;7.482;2022-09-09T13:15:22;100130.25;;;26.48;35.76
4981;BME280;2507;50.392;7.482;2022-09-09T13:17:51;100123.91;;;26.61;35.78
4981;BME280;2507;50.392;7.482;2022-09-09T13:20:19;100114.13;;;26.48;35.77
4981;BME280;2507;50.392;7.482;2022-09-09T13:22:47;100114.56;;;26.45;36.46
4981;BME280;2507;50.392;7.482;2022-09-09T13:27:52;100114.81;;;26.19;36.46
4981;BME280;2507;50.392;7.482;2022-09-09T13:30:41;100104.47;;;26.41;36.01
4981;BME280;2507;50.392;7.482;2022-09-09T13:35:52;100098.56;;;26.50;35.88
4981;BME280;2507;50.392;7.482;2022-09-09T13:38:19;100099.53;;;26.56;36.60
4981;BME280;2507;50.392;7.482;2022-09-09T13:40:58;100089.28;;;26.46;36.67
4981;BME280;2507;50.392;7.482;2022-09-09T13:43:27;100103.06;;;26.38;36.88
4981;BME280;2507;50.392;7.482;2022-09-09T13:45:58;100098.94;;;26.54;36.15
4981;BME280;2507;50.392;7.482;2022-09-09T13:48:24;100099.44;;;26.69;36.44
4981;BME280;2507;50.392;7.482;2022-09-09T13:50:55;100097.16;;;26.84;36.17
4981;BME280;2507;50.392;7.482;2022-09-09T13:53:21;100095.91;;;26.68;36.52
4981;BME280;2507;50.392;7.482;2022-09-09T13:55:46;100084.28;;;26.86;36.82
4981;BME280;2507;50.392;7.482;2022-09-09T13:58:16;100092.59;;;26.84;36.64
4981;BME280;2507;50.392;7.482;2022-09-09T14:00:43;100071.66;;;26.68;36.79
4981;BME280;2507;50.392;7.482;2022-09-09T14:03:09;100068.50;;;26.53;36.85
4981;BME280;2507;50.392;7.482;2022-09-09T14:05:35;100063.78;;;26.67;36.23
4981;BME280;2507;50.392;7.482;2022-09-09T14:08:03;100064.63;;;26.85;35.72
4981;BME280;2507;50.392;7.482;2022-09-09T14:10:29;100056.38;;;26.80;35.38
4981;BME280;2507;50.392;7.482;2022-09-09T14:12:54;100057.91;;;26.76;35.91
4981;BME280;2507;50.392;7.482;2022-09-09T14:15:19;100064.16;;;26.52;36.30
4981;BME280;2507;50.392;7.482;2022-09-09T14:17:45;100067.13;;;26.26;36.97
4981;BME280;2507;50.392;7.482;2022-09-09T14:20:11;100070.34;;;26.16;37.56
4981;BME280;2507;50.392;7.482;2022-09-09T14:22:37;100113.88;;;25.82;37.92
4981;BME280;2507;50.392;7.482;2022-09-09T14:25:04;100145.41;;;24.87;40.19
4981;BME280;2507;50.392;7.482;2022-09-09T14:27:31;100150.66;;;24.23;44.21
4981;BME280;2507;50.392;7.482;2022-09-09T14:29:56;100199.44;;;22.72;53.70
4981;BME280;2507;50.392;7.482;2022-09-09T14:32:22;100212.03;;;21.66;59.74
4981;BME280;2507;50.392;7.482;2022-09-09T14:34:48;100218.19;;;20.58;64.65
4981;BME280;2507;50.392;7.482;2022-09-09T14:37:15;100207.53;;;19.98;68.87
4981;BME280;2507;50.392;7.482;2022-09-09T14:39:41;100211.69;;;19.78;72.12
4981;BME280;2507;50.392;7.482;2022-09-09T14:42:09;100217.00;;;19.78;71.05
4981;BME280;2507;50.392;7.482;2022-09-09T14:44:36;100214.78;;;19.59;72.59
4981;BME280;2507;50.392;7.482;2022-09-09T14:47:02;100221.13;;;19.58;74.06
4981;BME280;2507;50.392;7.482;2022-09-09T14:49:27;100209.19;;;19.46;74.90
4981;BME280;2507;50.392;7.482;2022-09-09T14:51:53;100206.66;;;19.21;75.98
4981;BME280;2507;50.392;7.482;2022-09-09T14:54:18;100208.06;;;19.01;77.15
4981;BME280;2507;50.392;7.482;2022-09-09T14:56:43;100196.13;;;18.89;77.54
4981;BME280;2507;50.392;7.482;2022-09-09T14:59:09;100195.47;;;18.87;74.60
4981;BME280;2507;50.392;7.482;2022-09-09T15:01:34;100195.09;;;18.98;74.15
4981;BME280;2507;50.392;7.482;2022-09-09T15:04:02;100199.44;;;18.91;71.96
4981;BME280;2507;50.392;7.482;2022-09-09T15:06:29;100201.13;;;18.84;73.04
4981;BME280;2507;50.392;7.482;2022-09-09T15:08:56;100194.34;;;18.82;73.58